Time;durP1;ratioP1;P1;durP2;ratioP2;P2;SDS_P1;SDS_P2;PMS_P1;PMS_P2;Temp;Humidity;BMP_temperature;BMP_pressure;BME280_temperature;BME280_humidity;BME280_pressure;Samples;Min_cycle;Max_cycle;Signal;HPM_P1;HPM_P2
2022/12/14 00:01:18;;;;;;;13.03;10.80;;;-1.50;99.90;;;;;;4954566;29;20182;-73
2022/12/14 00:03:45;;;;;;;10.50;9.07;;;-1.50;99.90;;;;;;4955543;28;20340;-73
2022/12/14 00:06:15;;;;;;;11.93;10.73;;;-1.50;99.90;;;;;;4955663;28;20513;-73
2022/12/14 00:08:42;;;;;;;10.77;9.00;;;-1.50;99.90;;;;;;4953885;29;20182;-73
2022/12/14 00:11:09;;;;;;;15.83;11.17;;;-1.50;99.90;;;;;;4955644;28;20192;-73
2022/12/14 00:13:35;;;;;;;14.13;10.87;;;-1.50;99.90;;;;;;4955537;28;20209;-74
2022/12/14 00:16:15;;;;;;;13.27;10.67;;;-1.40;99.90;;;;;;4954083;29;20790;-74
2022/12/14 00:18:43;;;;;;;12.87;10.53;;;-1.50;99.90;;;;;;4953778;29;20677;-73
2022/12/14 00:21:12;;;;;;;14.03;11.57;;;-1.50;99.90;;;;;;4955310;28;20196;-73
2022/12/14 00:23:39;;;;;;;15.13;12.03;;;-1.50;99.90;;;;;;4955198;28;20313;-73
2022/12/14 00:26:12;;;;;;;13.83;11.13;;;-1.40;99.90;;;;;;4955023;28;20207;-73
2022/12/14 00:28:38;;;;;;;16.23;11.87;;;-1.40;99.90;;;;;;4953307;28;20182;-74
2022/12/14 00:31:04;;;;;;;16.37;10.90;;;-1.40;99.90;;;;;;4955272;28;20174;-74
2022/12/14 00:33:31;;;;;;;14.97;11.53;;;-1.40;99.90;;;;;;4955129;28;20298;-74
2022/12/14 00:35:57;;;;;;;13.33;10.93;;;-1.30;99.90;;;;;;4955042;28;20249;-73
2022/12/14 00:38:23;;;;;;;15.13;11.30;;;-1.30;99.90;;;;;;4954879;28;20195;-73
2022/12/14 00:40:50;;;;;;;14.80;10.97;;;-1.30;99.90;;;;;;4955026;28;20694;-74
2022/12/14 00:43:15;;;;;;;11.27;10.00;;;-1.30;99.90;;;;;;4954785;28;20217;-73
2022/12/14 00:45:45;;;;;;;13.27;10.63;;;-1.30;99.90;;;;;;4953452;29;20232;-74
2022/12/14 00:48:12;;;;;;;12.67;10.77;;;-1.30;99.90;;;;;;4954519;28;20209;-73
2022/12/14 00:50:38;;;;;;;13.17;11.60;;;-1.30;99.90;;;;;;4954726;28;20189;-74
2022/12/14 00:53:04;;;;;;;11.50;10.17;;;-1.20;99.90;;;;;;4954795;28;20205;-75
2022/12/14 00:55:35;;;;;;;13.57;11.50;;;-1.20;99.90;;;;;;4953355;29;20181;-73
2022/12/14 00:58:01;;;;;;;9.27;8.37;;;-1.20;99.90;;;;;;4954038;28;20189;-74
2022/12/14 01:00:27;;;;;;;9.67;8.77;;;-1.30;99.90;;;;;;4953279;29;20561;-73
2022/12/14 01:02:53;;;;;;;15.27;12.03;;;-1.30;99.90;;;;;;4977236;23;20236;-72
2022/12/14 01:05:18;;;;;;;9.73;8.30;;;-1.30;99.90;;;;;;4974892;28;20573;-73
2022/12/14 01:07:44;;;;;;;10.17;8.80;;;-1.30;99.90;;;;;;4979211;28;20181;-73
2022/12/14 01:10:10;;;;;;;9.23;8.43;;;-1.30;99.90;;;;;;4993235;28;20187;-73
2022/12/14 01:12:35;;;;;;;17.17;12.60;;;-1.30;99.90;;;;;;4993260;28;20191;-73
2022/12/14 01:15:01;;;;;;;12.10;10.80;;;-1.30;99.90;;;;;;4993004;28;20227;-73
2022/12/14 01:17:27;;;;;;;13.40;12.00;;;-1.20;99.90;;;;;;4973902;28;20191;-74
2022/12/14 01:19:53;;;;;;;16.13;12.83;;;-1.20;99.90;;;;;;4973658;28;20192;-73
2022/12/14 01:22:19;;;;;;;14.17;12.07;;;-1.30;99.90;;;;;;4973570;28;20268;-73
2022/12/14 01:24:44;;;;;;;14.97;11.93;;;-1.30;99.90;;;;;;4956187;28;20193;-73
2022/12/14 01:27:10;;;;;;;17.80;13.93;;;-1.30;99.90;;;;;;4988843;28;20211;-73
2022/12/14 01:29:36;;;;;;;16.73;13.13;;;-1.30;99.90;;;;;;4975446;28;20184;-73
2022/12/14 01:32:02;;;;;;;17.57;12.40;;;-1.40;99.90;;;;;;4993024;28;20602;-73
2022/12/14 01:34:27;;;;;;;12.07;10.37;;;-1.40;99.90;;;;;;4982471;28;20198;-73
2022/12/14 01:36:53;;;;;;;15.93;12.07;;;-1.40;99.90;;;;;;4956037;28;20196;-73
2022/12/14 01:39:19;;;;;;;10.60;9.60;;;-1.40;99.90;;;;;;4972461;28;20185;-73
2022/12/14 01:41:51;;;;;;;16.57;13.70;;;-1.50;99.90;;;;;;4973212;28;20247;-73
2022/12/14 01:44:17;;;;;;;13.43;10.97;;;-1.50;99.90;;;;;;4981027;28;20200;-73
2022/12/14 01:47:02;;;;;;;19.10;14.17;;;-1.50;99.90;;;;;;4992256;28;20237;-73
2022/12/14 01:49:50;;;;;;;18.63;14.07;;;-1.50;99.90;;;;;;4992468;28;20184;-73
2022/12/14 01:52:16;;;;;;;14.27;11.17;;;-1.50;99.90;;;;;;4993420;28;20216;-73
2022/12/14 01:54:57;;;;;;;17.10;13.53;;;-1.40;99.90;;;;;;4983344;28;20205;-73
2022/12/14 01:57:31;;;;;;;18.13;14.10;;;-1.40;99.90;;;;;;4976630;28;20185;-73
2022/12/14 01:59:58;;;;;;;8.87;8.17;;;-1.40;99.90;;;;;;4993987;28;20204;-73
2022/12/14 02:02:24;;;;;;;21.40;13.40;;;-1.40;99.90;;;;;;4964414;28;20575;-73
2022/12/14 02:04:56;;;;;;;21.00;13.57;;;-1.40;99.90;;;;;;4986922;28;20223;-73
2022/12/14 02:07:24;;;;;;;17.67;14.10;;;-1.30;99.90;;;;;;4991634;28;20235;-73
2022/12/14 02:09:52;;;;;;;19.77;14.93;;;-1.30;99.90;;;;;;4968788;28;20186;-73
2022/12/14 02:12:48;;;;;;;17.63;11.90;;;-1.30;99.90;;;;;;4956130;28;20187;-73
2022/12/14 02:15:15;;;;;;;15.40;12.57;;;-1.30;99.90;;;;;;4974817;28;20214;-73
2022/12/14 02:17:43;;;;;;;11.07;10.00;;;-1.30;99.90;;;;;;4974434;28;20183;-73
2022/12/14 02:20:11;;;;;;;13.53;12.17;;;-1.30;99.90;;;;;;4991980;28;20235;-73
2022/12/14 02:22:45;;;;;;;13.93;11.07;;;-1.30;99.90;;;;;;4991957;28;20290;-73
2022/12/14 02:25:30;;;;;;;16.23;12.63;;;-1.30;99.90;;;;;;4976959;28;20676;-73
2022/12/14 02:28:17;;;;;;;11.50;10.30;;;-1.30;99.90;;;;;;4971954;28;20212;-73
2022/12/14 02:30:54;;;;;;;16.30;12.40;;;-1.30;99.90;;;;;;4972351;28;20242;-73
2022/12/14 02:33:45;;;;;;;14.47;12.57;;;-1.20;99.90;;;;;;4955123;28;20208;-73
2022/12/14 02:36:22;;;;;;;14.43;11.47;;;-1.20;99.90;;;;;;4935864;29;20186;-73
2022/12/14 02:39:19;;;;;;;20.30;15.77;;;-1.20;99.90;;;;;;4935402;29;20647;-73
2022/12/14 02:42:01;;;;;;;12.53;10.93;;;-1.20;99.90;;;;;;4953148;29;20188;-73
2022/12/14 02:44:38;;;;;;;13.60;11.13;;;-1.20;99.90;;;;;;4969410;28;20200;-73
2022/12/14 02:47:31;;;;;;;15.23;13.57;;;-1.10;99.90;;;;;;4989671;28;20184;-73
2022/12/14 02:50:23;;;;;;;16.70;12.20;;;-1.10;99.90;;;;;;4991572;28;20604;-73
2022/12/14 02:53:26;;;;;;;17.13;13.40;;;-1.10;99.90;;;;;;4991381;28;20184;-73
2022/12/14 02:55:56;;;;;;;18.17;14.10;;;-1.10;99.90;;;;;;4973561;28;20262;-73
2022/12/14 02:58:34;;;;;;;20.47;13.50;;;-1.10;99.90;;;;;;4982563;28;20654;-73
2022/12/14 03:01:01;;;;;;;14.50;12.43;;;-1.10;99.90;;;;;;4972068;28;20654;-73
2022/12/14 03:03:27;;;;;;;20.57;14.77;;;-1.10;99.90;;;;;;4971719;28;20690;-73
2022/12/14 03:05:58;;;;;;;19.33;13.23;;;-1.10;99.90;;;;;;4973392;28;20203;-73
2022/12/14 03:08:26;;;;;;;16.53;13.10;;;-1.10;99.90;;;;;;4991080;28;20279;-73
2022/12/14 03:11:02;;;;;;;18.37;14.53;;;-1.10;99.90;;;;;;4991659;28;20195;-73
2022/12/14 03:13:45;;;;;;;13.03;11.47;;;-1.10;99.90;;;;;;4993387;28;20210;-73
2022/12/14 03:16:19;;;;;;;21.10;14.83;;;-1.10;99.90;;;;;;4936008;29;20189;-73
2022/12/14 03:18:53;;;;;;;17.70;13.03;;;-1.10;99.90;;;;;;4935363;29;20611;-73
2022/12/14 03:21:26;;;;;;;18.00;12.23;;;-1.10;99.90;;;;;;4935568;29;20643;-73
2022/12/14 03:23:54;;;;;;;10.73;9.63;;;-1.10;99.90;;;;;;4957893;28;20213;-73
2022/12/14 03:26:27;;;;;;;23.40;15.73;;;-1.10;99.90;;;;;;4991161;28;20657;-73
2022/12/14 03:29:17;;;;;;;20.43;14.97;;;-1.20;99.90;;;;;;4973524;28;20605;-74
2022/12/14 03:31:55;;;;;;;20.07;15.73;;;-1.10;99.90;;;;;;4991281;28;20243;-73
2022/12/14 03:34:28;;;;;;;18.47;13.73;;;-1.10;99.90;;;;;;4984823;28;20200;-73
2022/12/14 03:37:16;;;;;;;14.03;10.53;;;-1.20;99.90;;;;;;4954271;28;20221;-73
2022/12/14 03:39:43;;;;;;;20.83;15.40;;;-1.10;99.90;;;;;;4971594;28;20173;-74
2022/12/14 03:42:34;;;;;;;14.07;11.63;;;-1.10;99.90;;;;;;4971685;28;20231;-73
2022/12/14 03:45:20;;;;;;;20.07;14.73;;;-1.20;99.90;;;;;;4965109;28;20308;-73
2022/12/14 03:47:54;;;;;;;26.20;16.00;;;-1.10;99.90;;;;;;4990749;28;20180;-73
2022/12/14 03:50:46;;;;;;;20.80;15.57;;;-1.10;99.90;;;;;;4973631;28;20188;-73
2022/12/14 03:53:32;;;;;;;20.20;15.33;;;-1.10;99.90;;;;;;4975748;28;20208;-73
2022/12/14 03:56:10;;;;;;;14.27;12.60;;;-1.10;99.90;;;;;;4982939;28;20192;-73
2022/12/14 03:58:38;;;;;;;23.40;15.83;;;-1.10;99.90;;;;;;4953973;28;20189;-73
2022/12/14 04:01:50;;;;;;;14.83;12.23;;;-1.10;99.90;;;;;;4971539;28;20215;-72
2022/12/14 04:04:33;;;;;;;21.90;15.87;;;-1.10;99.90;;;;;;4960461;28;20209;-72
2022/12/14 04:07:12;;;;;;;21.03;15.50;;;-1.10;99.90;;;;;;4969130;28;20235;-72
2022/12/14 04:10:01;;;;;;;21.10;15.67;;;-1.10;99.90;;;;;;4975070;28;20189;-73
2022/12/14 04:21:31;;;;;;;23.53;16.33;;;-1.30;99.90;;;;;;4994102;28;20184;-72
2022/12/14 04:27:42;;;;;;;19.93;14.63;;;-1.50;99.90;;;;;;4973767;28;20204;-73
2022/12/14 04:30:10;;;;;;;23.27;17.60;;;-1.50;99.90;;;;;;4966751;28;20231;-73
2022/12/14 04:32:50;;;;;;;20.10;17.33;;;-1.50;99.90;;;;;;4973360;28;20188;-73
2022/12/14 04:35:24;;;;;;;19.40;15.60;;;-1.40;99.90;;;;;;4973059;28;20184;-73
2022/12/14 04:38:03;;;;;;;14.47;11.03;;;-1.40;99.90;;;;;;4975931;28;20196;-73
2022/12/14 04:40:33;;;;;;;13.90;12.00;;;-1.40;99.90;;;;;;4974899;28;20188;-73
2022/12/14 04:43:04;;;;;;;28.80;17.07;;;-1.50;99.90;;;;;;4992965;28;20242;-73
2022/12/14 04:45:40;;;;;;;18.63;14.00;;;-1.50;99.90;;;;;;4995198;28;20284;-75
2022/12/14 04:48:23;;;;;;;29.97;18.13;;;-1.40;99.90;;;;;;4993643;28;20208;-72
2022/12/14 04:51:06;;;;;;;16.57;13.20;;;-1.40;99.90;;;;;;4953705;28;20311;-72
2022/12/14 04:53:34;;;;;;;27.00;18.67;;;-1.40;99.90;;;;;;4973419;28;20221;-71
2022/12/14 04:56:04;;;;;;;28.33;19.30;;;-1.40;99.90;;;;;;4966211;28;20718;-72
2022/12/14 04:58:30;;;;;;;25.63;18.10;;;-1.40;99.90;;;;;;4973420;28;20189;-72
2022/12/14 05:01:15;;;;;;;20.23;15.67;;;-1.30;99.90;;;;;;4974224;28;20185;-73
2022/12/14 05:03:57;;;;;;;14.77;11.83;;;-1.20;99.90;;;;;;4975297;28;20381;-73
2022/12/14 05:06:36;;;;;;;26.20;18.57;;;-1.20;99.90;;;;;;4971802;28;20243;-73
2022/12/14 05:09:22;;;;;;;16.93;13.93;;;-1.20;99.90;;;;;;4973450;28;20191;-73
2022/12/14 05:11:56;;;;;;;15.93;12.50;;;-1.20;99.90;;;;;;4978629;28;20418;-72
2022/12/14 05:14:40;;;;;;;21.83;15.67;;;-1.20;99.90;;;;;;4997645;28;20201;-72
2022/12/14 05:17:07;;;;;;;17.13;13.97;;;-1.20;99.90;;;;;;4996261;28;20177;-72
2022/12/14 05:19:32;;;;;;;21.73;15.60;;;-1.20;99.90;;;;;;4985620;28;20177;-73
2022/12/14 05:22:05;;;;;;;16.13;13.60;;;-1.20;99.90;;;;;;4973897;28;20211;-73
2022/12/14 05:24:31;;;;;;;24.77;18.43;;;-1.20;99.90;;;;;;4973228;28;20641;-73
2022/12/14 05:26:56;;;;;;;17.03;13.80;;;-1.10;99.90;;;;;;4972664;28;20204;-72
2022/12/14 05:29:22;;;;;;;27.60;19.70;;;-1.10;99.90;;;;;;4973196;28;20217;-73
2022/12/14 05:31:49;;;;;;;12.97;11.20;;;-1.10;99.90;;;;;;4956098;28;20232;-73
2022/12/14 05:34:15;;;;;;;16.07;13.20;;;-1.10;99.90;;;;;;4955985;28;20205;-73
2022/12/14 05:36:41;;;;;;;22.00;14.30;;;-1.00;99.90;;;;;;4973245;28;20173;-73
2022/12/14 05:39:06;;;;;;;27.03;17.50;;;-1.00;99.90;;;;;;4955716;28;20201;-73
2022/12/14 05:41:32;;;;;;;24.57;15.63;;;-1.00;99.90;;;;;;4972549;28;20547;-73
2022/12/14 05:43:58;;;;;;;22.60;17.47;;;-1.00;99.90;;;;;;4955627;28;20212;-73
2022/12/14 05:46:23;;;;;;;24.83;15.80;;;-1.00;99.90;;;;;;4955641;28;20595;-73
2022/12/14 05:48:49;;;;;;;25.60;17.63;;;-1.00;99.90;;;;;;4972203;28;20185;-73
2022/12/14 05:51:16;;;;;;;24.53;17.70;;;-0.90;99.90;;;;;;4972758;28;20612;-73
2022/12/14 05:53:42;;;;;;;23.87;17.13;;;-0.90;99.90;;;;;;4972810;28;20263;-73
2022/12/14 05:56:09;;;;;;;25.53;17.73;;;-0.90;99.90;;;;;;4972089;28;20550;-73
2022/12/14 05:58:35;;;;;;;29.83;19.87;;;-0.90;99.90;;;;;;4972443;28;20220;-73
2022/12/14 06:01:04;;;;;;;18.73;15.13;;;-0.90;99.90;;;;;;4955833;28;20189;-72
2022/12/14 06:03:30;;;;;;;21.83;15.43;;;-0.80;99.90;;;;;;4954877;28;20224;-67
2022/12/14 06:06:06;;;;;;;19.33;14.93;;;-0.80;99.90;;;;;;4972558;28;20190;-67
2022/12/14 06:08:33;;;;;;;16.60;13.47;;;-0.90;99.90;;;;;;4972547;28;20181;-67
2022/12/14 06:11:08;;;;;;;23.67;16.93;;;-0.90;99.90;;;;;;4975304;28;20177;-67
2022/12/14 06:13:38;;;;;;;25.93;17.60;;;-0.90;99.90;;;;;;4985194;28;20321;-68
2022/12/14 06:16:10;;;;;;;21.13;15.23;;;-0.90;99.90;;;;;;4972586;28;20243;-68
2022/12/14 06:18:39;;;;;;;22.20;15.03;;;-0.80;99.90;;;;;;4954580;28;20719;-67
2022/12/14 06:21:04;;;;;;;25.97;17.40;;;-0.80;99.90;;;;;;4972407;28;20658;-67
2022/12/14 06:23:30;;;;;;;27.17;17.40;;;-0.80;99.90;;;;;;4972391;28;20283;-68
2022/12/14 06:25:56;;;;;;;25.07;18.53;;;-0.70;99.90;;;;;;4971983;28;20235;-69
2022/12/14 06:28:22;;;;;;;24.93;17.77;;;-0.70;99.90;;;;;;4972417;28;20189;-68
2022/12/14 06:30:48;;;;;;;22.77;17.17;;;-0.70;99.90;;;;;;4972136;28;20182;-67
2022/12/14 06:33:14;;;;;;;24.70;17.80;;;-0.60;99.90;;;;;;4971980;28;20249;-67
2022/12/14 06:35:44;;;;;;;29.30;17.23;;;-0.60;99.90;;;;;;4972084;28;20632;-68
2022/12/14 06:38:11;;;;;;;18.87;14.87;;;-0.60;99.90;;;;;;4972002;28;20189;-67
2022/12/14 06:40:37;;;;;;;20.10;15.13;;;-0.70;99.90;;;;;;4971808;28;20185;-67
2022/12/14 06:43:04;;;;;;;26.37;16.57;;;-0.70;99.90;;;;;;4972304;28;20230;-68
2022/12/14 06:45:30;;;;;;;25.13;17.47;;;-0.70;99.90;;;;;;4972001;28;20191;-68
2022/12/14 06:47:57;;;;;;;27.37;18.30;;;-0.70;99.90;;;;;;4971178;28;20181;-68
2022/12/14 06:50:24;;;;;;;22.67;15.37;;;-0.70;99.90;;;;;;4970201;28;20205;-68
2022/12/14 06:52:50;;;;;;;18.83;14.20;;;-0.60;99.90;;;;;;4954471;28;20183;-66
2022/12/14 06:55:16;;;;;;;25.93;18.23;;;-0.60;99.90;;;;;;4971767;28;20209;-66
2022/12/14 06:57:43;;;;;;;23.87;15.80;;;-0.60;99.90;;;;;;4971556;28;20177;-66
2022/12/14 07:00:12;;;;;;;17.37;13.20;;;-0.60;99.90;;;;;;4972181;28;20662;-66
2022/12/14 07:02:40;;;;;;;19.73;15.47;;;-0.50;99.90;;;;;;4971466;28;20217;-66
2022/12/14 07:05:06;;;;;;;28.60;20.07;;;-0.50;99.90;;;;;;5025284;23;20239;-66
2022/12/14 07:07:32;;;;;;;30.67;22.60;;;-0.50;99.90;;;;;;5009718;28;20625;-66
2022/12/14 07:09:58;;;;;;;28.57;19.70;;;-0.50;99.90;;;;;;5010650;28;20183;-66
2022/12/14 07:12:26;;;;;;;25.50;16.83;;;-0.50;99.90;;;;;;5010855;28;20825;-66
2022/12/14 07:14:52;;;;;;;27.33;18.53;;;-0.60;99.90;;;;;;4996260;28;20586;-66
2022/12/14 07:17:18;;;;;;;25.47;17.63;;;-0.60;99.90;;;;;;4990507;28;20573;-66
2022/12/14 07:19:45;;;;;;;30.53;20.87;;;-0.70;99.90;;;;;;4991098;28;20184;-66
2022/12/14 07:22:11;;;;;;;28.37;20.00;;;-0.80;99.90;;;;;;4990907;28;20732;-66
2022/12/14 07:24:37;;;;;;;29.30;19.90;;;-0.80;99.90;;;;;;4990694;28;20208;-66
2022/12/14 07:27:03;;;;;;;15.57;13.33;;;-0.80;99.90;;;;;;4973477;28;20176;-66
2022/12/14 07:29:29;;;;;;;28.73;19.77;;;-0.90;99.90;;;;;;4990922;28;20646;-66
2022/12/14 07:31:55;;;;;;;27.60;19.80;;;-0.90;99.90;;;;;;4973388;28;20279;-67
2022/12/14 07:34:21;;;;;;;29.93;22.13;;;-0.90;99.90;;;;;;4990917;28;20343;-66
2022/12/14 07:36:49;;;;;;;31.30;21.87;;;-0.90;99.90;;;;;;4990411;28;20177;-66
2022/12/14 07:39:16;;;;;;;31.77;21.53;;;-0.80;99.90;;;;;;4994166;28;20187;-66
2022/12/14 07:41:43;;;;;;;30.20;20.60;;;-0.80;99.90;;;;;;4994689;28;20184;-66
2022/12/14 07:44:10;;;;;;;22.80;15.27;;;-0.80;99.90;;;;;;5000485;28;20195;-66
2022/12/14 07:46:36;;;;;;;32.37;22.53;;;-0.80;99.90;;;;;;5014041;28;20188;-66
2022/12/14 07:49:02;;;;;;;33.70;23.87;;;-0.80;99.90;;;;;;5012537;28;20181;-66
2022/12/14 07:51:31;;;;;;;32.97;24.13;;;-0.70;99.90;;;;;;5014063;28;20235;-66
2022/12/14 07:53:57;;;;;;;33.47;22.60;;;-0.70;99.90;;;;;;5013608;28;20224;-66
2022/12/14 07:56:28;;;;;;;34.20;24.57;;;-0.60;99.90;;;;;;5014073;28;20226;-66
2022/12/14 07:58:55;;;;;;;28.57;20.60;;;-0.60;99.90;;;;;;5013674;28;20252;-66
2022/12/14 08:01:26;;;;;;;32.60;20.30;;;-0.50;99.90;;;;;;5013749;28;20186;-68
2022/12/14 08:03:56;;;;;;;31.87;23.70;;;-0.40;99.90;;;;;;5013520;28;20719;-66
2022/12/14 08:06:25;;;;;;;36.90;22.47;;;-0.40;99.90;;;;;;5013832;28;20543;-68
2022/12/14 08:08:51;;;;;;;29.10;20.13;;;-0.40;99.90;;;;;;5013203;28;20219;-68
2022/12/14 08:11:18;;;;;;;34.50;22.40;;;-0.40;99.90;;;;;;5013721;28;20283;-66
2022/12/14 08:13:45;;;;;;;30.63;21.27;;;-0.30;99.90;;;;;;4996147;28;20207;-66
2022/12/14 08:16:14;;;;;;;29.53;21.63;;;-0.30;99.90;;;;;;5013553;28;20273;-66
2022/12/14 08:18:40;;;;;;;29.17;21.10;;;-0.30;99.90;;;;;;5013114;28;20300;-68
2022/12/14 08:21:07;;;;;;;32.80;21.63;;;-0.30;99.90;;;;;;4996160;28;20574;-66
2022/12/14 08:23:34;;;;;;;26.53;19.20;;;-0.20;99.90;;;;;;5006245;28;20801;-66
2022/12/14 08:26:01;;;;;;;33.90;21.77;;;-0.30;99.90;;;;;;5011945;28;20708;-66
2022/12/14 08:28:28;;;;;;;26.53;20.63;;;-0.30;99.90;;;;;;4995996;28;20199;-67
2022/12/14 08:30:55;;;;;;;16.13;14.53;;;-0.30;99.90;;;;;;5013416;28;20180;-68
2022/12/14 08:33:21;;;;;;;33.27;22.57;;;-0.20;99.90;;;;;;5013527;28;20191;-67
2022/12/14 08:35:47;;;;;;;29.33;20.93;;;-0.20;99.90;;;;;;5013588;28;20188;-66
2022/12/14 08:38:14;;;;;;;28.67;20.47;;;-0.20;99.90;;;;;;5012069;28;20187;-66
2022/12/14 08:40:40;;;;;;;28.77;19.50;;;0.00;99.90;;;;;;5013590;28;20719;-67
2022/12/14 08:43:06;;;;;;;27.03;19.77;;;0.10;99.90;;;;;;5013223;28;20239;-66
2022/12/14 08:45:32;;;;;;;28.93;21.37;;;0.10;99.90;;;;;;5021440;28;20178;-66
2022/12/14 08:48:01;;;;;;;32.93;21.60;;;0.10;99.90;;;;;;5025524;28;20692;-66
2022/12/14 08:50:30;;;;;;;40.07;25.80;;;0.20;99.90;;;;;;4996022;28;20175;-66
2022/12/14 08:52:56;;;;;;;32.00;22.97;;;0.40;99.90;;;;;;5013242;28;20683;-66
2022/12/14 08:55:22;;;;;;;26.57;20.43;;;0.50;99.90;;;;;;5013022;28;20203;-67
2022/12/14 08:57:48;;;;;;;30.47;21.23;;;0.60;99.90;;;;;;5012646;28;20237;-66
2022/12/14 09:00:15;;;;;;;32.63;22.40;;;0.60;99.90;;;;;;5013119;28;20275;-66
2022/12/14 09:02:40;;;;;;;30.97;21.37;;;0.60;99.90;;;;;;5013168;28;20602;-66
2022/12/14 09:05:07;;;;;;;31.90;21.33;;;0.80;99.90;;;;;;5012699;28;20277;-66
2022/12/14 09:07:33;;;;;;;33.27;20.63;;;0.80;99.90;;;;;;4995021;28;20179;-67
2022/12/14 09:09:59;;;;;;;24.47;17.73;;;0.70;99.90;;;;;;5011616;28;20237;-67
2022/12/14 09:12:24;;;;;;;26.13;19.27;;;0.60;99.90;;;;;;5012977;28;20190;-67
2022/12/14 09:14:51;;;;;;;32.27;21.27;;;0.60;99.90;;;;;;5012907;28;20205;-66
2022/12/14 09:17:17;;;;;;;30.93;21.07;;;0.50;99.90;;;;;;4997626;28;20274;-67
2022/12/14 09:19:43;;;;;;;28.03;19.07;;;0.50;99.90;;;;;;4975952;28;20187;-66
2022/12/14 09:22:10;;;;;;;34.07;21.70;;;0.50;99.90;;;;;;4973322;28;20230;-67
2022/12/14 09:24:35;;;;;;;34.77;23.23;;;0.50;99.90;;;;;;5008320;28;20194;-67
2022/12/14 09:27:02;;;;;;;23.47;19.03;;;0.50;99.90;;;;;;5011875;28;20183;-66
2022/12/14 09:29:28;;;;;;;37.40;27.13;;;0.40;99.90;;;;;;5012313;28;20247;-66
2022/12/14 09:31:55;;;;;;;32.33;24.97;;;0.40;99.90;;;;;;4994592;28;20180;-66
2022/12/14 09:34:22;;;;;;;34.37;28.27;;;0.40;99.90;;;;;;5012240;28;20195;-66
2022/12/14 09:36:49;;;;;;;34.83;23.90;;;0.40;99.90;;;;;;4976198;28;20198;-66
2022/12/14 09:39:15;;;;;;;34.03;20.30;;;0.40;99.90;;;;;;4992211;28;20187;-66
2022/12/14 09:41:55;;;;;;;33.50;20.70;;;0.40;99.90;;;;;;5007502;28;20181;-67
2022/12/14 09:44:52;;;;;;;39.10;22.23;;;0.40;99.90;;;;;;4992374;28;20702;-66
2022/12/14 09:47:36;;;;;;;35.43;24.97;;;0.40;99.90;;;;;;4991901;28;20181;-66
2022/12/14 09:50:29;;;;;;;37.73;24.83;;;0.40;99.90;;;;;;5007867;28;20222;-66
2022/12/14 09:53:00;;;;;;;32.67;22.97;;;0.40;99.90;;;;;;4990009;28;20206;-68
2022/12/14 09:55:45;;;;;;;43.00;32.17;;;0.40;99.90;;;;;;4992092;28;20696;-66
2022/12/14 09:58:23;;;;;;;38.33;27.17;;;0.40;99.90;;;;;;4991717;28;20281;-66
2022/12/14 10:01:17;;;;;;;36.63;28.00;;;0.40;99.90;;;;;;4974011;28;20188;-66
2022/12/14 10:04:09;;;;;;;40.27;31.73;;;0.40;99.90;;;;;;4992816;28;20247;-66
2022/12/14 10:06:48;;;;;;;42.30;32.03;;;0.50;99.90;;;;;;4991997;28;20213;-66
2022/12/14 10:09:20;;;;;;;37.13;23.87;;;0.50;99.90;;;;;;4991759;28;20198;-66
2022/12/14 10:12:17;;;;;;;39.13;25.53;;;0.60;99.90;;;;;;4997830;28;20567;-66
2022/12/14 10:14:51;;;;;;;35.03;21.97;;;0.50;99.90;;;;;;5011451;28;20208;-66
2022/12/14 10:17:41;;;;;;;39.17;24.53;;;0.50;99.90;;;;;;5010681;28;20237;-66
2022/12/14 10:20:41;;;;;;;39.93;24.70;;;0.50;99.90;;;;;;5011460;28;20285;-66
2022/12/14 10:23:14;;;;;;;36.50;24.93;;;0.40;99.90;;;;;;5010878;28;20219;-66
2022/12/14 10:25:42;;;;;;;37.47;24.27;;;0.40;99.90;;;;;;5011455;28;20198;-66
2022/12/14 10:28:24;;;;;;;38.50;24.73;;;0.50;99.90;;;;;;5010882;28;20254;-66
2022/12/14 10:30:53;;;;;;;38.67;23.70;;;0.50;99.90;;;;;;5023524;28;20230;-65
2022/12/14 10:33:30;;;;;;;35.87;24.83;;;0.60;99.90;;;;;;5014401;28;20256;-66
2022/12/14 10:36:17;;;;;;;41.40;25.43;;;0.60;99.90;;;;;;5011113;28;20193;-66
2022/12/14 10:38:57;;;;;;;33.90;21.93;;;0.70;99.90;;;;;;5010503;28;20273;-65
2022/12/14 10:42:00;;;;;;;33.77;22.47;;;0.70;99.90;;;;;;5011158;28;20182;-65
2022/12/14 10:44:48;;;;;;;34.43;22.77;;;0.70;99.90;;;;;;5011087;28;20215;-65
2022/12/14 10:47:24;;;;;;;35.83;22.23;;;0.70;99.90;;;;;;5010682;28;20263;-66
2022/12/14 10:50:00;;;;;;;35.70;23.67;;;0.70;99.90;;;;;;5010977;28;20187;-65
2022/12/14 10:52:35;;;;;;;38.07;24.90;;;0.70;99.90;;;;;;5011028;28;20707;-65
2022/12/14 10:55:14;;;;;;;40.33;25.37;;;0.70;99.90;;;;;;5010952;28;20208;-68
2022/12/14 10:57:40;;;;;;;36.33;25.37;;;0.80;99.90;;;;;;5010956;28;20322;-68
2022/12/14 11:00:16;;;;;;;35.07;22.97;;;0.80;99.90;;;;;;5010858;28;20664;-66
2022/12/14 11:02:46;;;;;;;34.77;22.77;;;0.80;99.90;;;;;;5010787;28;20561;-66
2022/12/14 11:05:36;;;;;;;37.57;24.73;;;0.70;99.90;;;;;;4971168;28;20222;-66
2022/12/14 11:08:06;;;;;;;34.87;23.00;;;0.60;99.90;;;;;;4975237;28;20275;-66
2022/12/14 11:10:34;;;;;;;37.70;25.27;;;0.70;99.90;;;;;;4981384;28;20244;-66
2022/12/14 11:13:12;;;;;;;37.07;26.80;;;0.70;99.90;;;;;;4974919;28;20190;-66
2022/12/14 11:15:46;;;;;;;38.30;25.90;;;0.70;99.90;;;;;;4994894;28;20195;-67
2022/12/14 11:18:15;;;;;;;40.40;25.77;;;0.70;99.90;;;;;;4994707;28;20207;-66
2022/12/14 11:20:55;;;;;;;37.07;25.73;;;0.80;99.90;;;;;;4995075;28;20177;-66
2022/12/14 11:23:26;;;;;;;38.73;26.17;;;0.90;99.90;;;;;;4977495;28;20231;-66
2022/12/14 11:25:58;;;;;;;42.20;26.93;;;1.00;99.90;;;;;;4994864;28;20184;-66
2022/12/14 11:28:32;;;;;;;40.57;25.23;;;1.00;99.90;;;;;;4994767;28;20182;-66
2022/12/14 11:31:01;;;;;;;35.37;24.80;;;1.10;99.90;;;;;;4994899;28;20181;-66
2022/12/14 11:33:42;;;;;;;41.00;26.53;;;1.10;99.90;;;;;;4994716;28;20227;-66
2022/12/14 11:36:08;;;;;;;39.50;24.80;;;1.00;99.90;;;;;;4994691;28;20207;-66
2022/12/14 11:38:34;;;;;;;38.53;25.77;;;0.90;99.90;;;;;;4994446;28;20740;-66
2022/12/14 11:41:02;;;;;;;38.07;25.80;;;0.90;99.90;;;;;;4994839;28;20212;-66
2022/12/14 11:43:37;;;;;;;38.77;26.47;;;0.90;99.90;;;;;;4994516;28;20243;-66
2022/12/14 11:46:04;;;;;;;34.93;25.03;;;0.80;99.90;;;;;;4993693;28;20191;-66
2022/12/14 11:48:30;;;;;;;44.83;25.73;;;0.90;99.90;;;;;;4994562;28;20263;-66
2022/12/14 11:51:12;;;;;;;40.33;25.57;;;0.90;99.90;;;;;;4994790;28;20187;-66
2022/12/14 11:53:39;;;;;;;37.60;25.07;;;1.00;99.90;;;;;;4994399;28;20228;-66
2022/12/14 11:56:11;;;;;;;39.53;26.93;;;1.00;99.90;;;;;;4994345;28;20720;-67
2022/12/14 11:58:47;;;;;;;39.17;25.60;;;1.10;99.90;;;;;;4994009;28;20287;-67
2022/12/14 12:01:25;;;;;;;43.40;26.73;;;1.20;99.90;;;;;;4994868;28;20598;-67
2022/12/14 12:03:55;;;;;;;42.57;26.53;;;1.30;99.90;;;;;;4994225;28;20215;-67
2022/12/14 12:06:24;;;;;;;43.60;28.10;;;1.40;99.90;;;;;;4994337;28;20180;-67
2022/12/14 12:09:01;;;;;;;40.60;25.50;;;1.40;99.90;;;;;;4994086;28;20193;-67
2022/12/14 12:11:32;;;;;;;45.43;28.20;;;1.50;99.90;;;;;;4994314;28;20578;-67
2022/12/14 12:14:23;;;;;;;38.33;24.97;;;1.40;99.90;;;;;;4994617;28;20243;-67
2022/12/14 12:16:51;;;;;;;38.17;25.57;;;1.50;99.90;;;;;;5007274;28;20196;-67
2022/12/14 12:19:50;;;;;;;40.73;25.47;;;1.50;99.90;;;;;;4994717;28;20272;-66
2022/12/14 12:22:17;;;;;;;42.80;25.93;;;1.60;99.90;;;;;;4978987;28;20653;-67
2022/12/14 12:25:01;;;;;;;38.43;24.53;;;1.60;99.90;;;;;;4993555;28;20598;-67
2022/12/14 12:27:28;;;;;;;39.60;25.47;;;1.70;99.90;;;;;;4994012;28;20181;-67
2022/12/14 12:30:06;;;;;;;44.53;27.60;;;1.60;99.90;;;;;;4993165;28;20535;-67
2022/12/14 12:32:38;;;;;;;43.60;26.87;;;1.60;99.90;;;;;;4993928;28;20192;-67
2022/12/14 12:35:31;;;;;;;35.13;24.70;;;1.70;99.90;;;;;;4993913;28;20207;-67
2022/12/14 12:38:42;;;;;;;39.07;27.30;;;1.80;99.90;;;;;;4993526;28;20238;-67
2022/12/14 12:41:44;;;;;;;38.87;24.67;;;1.80;99.90;;;;;;4974358;28;20205;-67
2022/12/14 12:44:37;;;;;;;43.67;27.37;;;1.80;99.90;;;;;;4993726;28;20214;-68
2022/12/14 12:47:22;;;;;;;42.07;28.60;;;1.80;99.90;;;;;;4993214;28;20224;-67
2022/12/14 12:49:48;;;;;;;38.47;26.40;;;1.80;99.90;;;;;;4993591;28;20176;-68
2022/12/14 12:52:24;;;;;;;48.83;28.37;;;1.90;99.90;;;;;;4993578;28;20241;-67
2022/12/14 12:55:14;;;;;;;44.90;26.37;;;1.90;99.90;;;;;;4993436;28;20233;-67
2022/12/14 12:57:44;;;;;;;41.47;26.53;;;1.80;99.90;;;;;;4993267;28;20214;-68
2022/12/14 13:00:24;;;;;;;45.77;27.83;;;1.60;99.90;;;;;;4993486;28;20198;-67
2022/12/14 13:03:07;;;;;;;40.53;26.43;;;1.50;99.90;;;;;;4993325;28;20217;-67
2022/12/14 13:05:37;;;;;;;47.03;26.40;;;1.50;99.90;;;;;;5014373;23;20231;-68
2022/12/14 13:08:12;;;;;;;47.90;26.23;;;1.40;99.90;;;;;;4992261;28;20207;-66
2022/12/14 13:10:40;;;;;;;51.10;26.07;;;1.40;99.90;;;;;;4993538;28;20204;-66